createdAt,value
2018-12-19T00:02:21.836Z,4.59
2018-12-19T00:04:49.312Z,4.55
2018-12-19T00:07:16.568Z,4.55
2018-12-19T00:09:43.804Z,4.45
2018-12-19T00:12:11.046Z,4.46
2018-12-19T00:14:38.313Z,4.52
2018-12-19T00:17:05.529Z,4.57
2018-12-19T00:19:32.773Z,4.63
2018-12-19T00:21:59.988Z,4.59
2018-12-19T00:24:27.255Z,4.51
2018-12-19T00:26:54.468Z,4.49
2018-12-19T00:29:21.713Z,4.56
2018-12-19T00:31:49.117Z,4.61
2018-12-19T00:34:16.416Z,4.54
2018-12-19T00:36:43.662Z,4.66
2018-12-19T00:39:10.890Z,4.59
2018-12-19T00:41:38.128Z,4.54
2018-12-19T00:44:05.409Z,4.60
2018-12-19T00:46:32.666Z,4.59
2018-12-19T00:48:59.907Z,4.57
2018-12-19T00:51:27.156Z,4.62
2018-12-19T00:53:54.389Z,4.60
2018-12-19T00:56:21.642Z,4.52
2018-12-19T00:58:48.944Z,4.48
2018-12-19T01:01:16.263Z,4.53
2018-12-19T01:03:43.498Z,4.53
2018-12-19T01:06:10.982Z,4.46
2018-12-19T01:08:38.276Z,4.60
2018-12-19T01:11:05.563Z,4.58
2018-12-19T01:13:32.839Z,4.52
2018-12-19T01:16:00.099Z,4.52
2018-12-19T01:18:27.366Z,4.48
2018-12-19T01:20:54.604Z,4.54
2018-12-19T01:23:21.835Z,4.56
2018-12-19T01:25:49.073Z,4.59
2018-12-19T01:28:16.308Z,4.53
2018-12-19T01:30:43.553Z,4.53
2018-12-19T01:33:10.781Z,4.56
2018-12-19T01:35:38.406Z,4.43
2018-12-19T01:38:05.924Z,4.57
2018-12-19T01:40:33.198Z,4.57
2018-12-19T01:43:00.436Z,4.62
2018-12-19T01:45:27.680Z,4.52
2018-12-19T01:47:55.242Z,4.57
2018-12-19T01:50:22.464Z,4.55
2018-12-19T01:52:49.732Z,4.47
2018-12-19T01:55:16.971Z,4.44
2018-12-19T01:57:44.226Z,4.44
2018-12-19T02:00:11.464Z,4.42
2018-12-19T02:02:38.721Z,4.49
2018-12-19T02:05:06.103Z,4.46
2018-12-19T02:07:33.367Z,4.36
2018-12-19T02:10:00.710Z,4.31
2018-12-19T02:12:27.993Z,4.29
2018-12-19T02:14:55.335Z,4.23
2018-12-19T02:17:22.608Z,4.27
2018-12-19T02:19:49.820Z,4.35
2018-12-19T02:22:17.084Z,4.26
2018-12-19T02:24:44.308Z,4.10
2018-12-19T02:27:11.555Z,4.27
2018-12-19T02:29:38.782Z,4.22
2018-12-19T02:32:08.414Z,4.20
2018-12-19T02:34:35.876Z,4.21
2018-12-19T02:37:03.169Z,4.29
2018-12-19T02:39:36.158Z,4.29
2018-12-19T02:41:59.707Z,4.35
2018-12-19T02:44:26.928Z,4.30
2018-12-19T02:46:54.185Z,4.38
2018-12-19T02:49:21.421Z,4.28
2018-12-19T02:51:48.678Z,4.27
2018-12-19T02:54:15.914Z,4.41
2018-12-19T02:56:43.170Z,4.47
2018-12-19T02:59:10.425Z,4.45
2018-12-19T03:01:37.673Z,4.46
2018-12-19T03:04:04.943Z,4.51
2018-12-19T03:06:32.180Z,4.44
2018-12-19T03:08:59.401Z,4.39
2018-12-19T03:11:26.664Z,4.43
2018-12-19T03:13:55.917Z,4.39
2018-12-19T03:16:23.376Z,4.31
2018-12-19T03:18:50.856Z,4.35
2018-12-19T03:21:18.076Z,4.26
2018-12-19T03:23:45.333Z,4.20
2018-12-19T03:26:12.578Z,4.22
2018-12-19T03:28:39.836Z,4.20
2018-12-19T03:31:07.178Z,4.38
2018-12-19T03:33:35.219Z,4.35
2018-12-19T03:36:02.453Z,4.35
2018-12-19T03:38:29.709Z,4.38
2018-12-19T03:40:56.948Z,4.49
2018-12-19T03:43:24.187Z,4.41
2018-12-19T03:45:51.411Z,4.58
2018-12-19T03:48:24.389Z,4.48
2018-12-19T03:50:51.755Z,4.34
2018-12-19T03:53:18.990Z,4.47
2018-12-19T03:55:46.183Z,4.61
2018-12-19T03:58:13.425Z,4.59
2018-12-19T04:00:40.660Z,4.63
2018-12-19T04:03:07.885Z,4.46
2018-12-19T04:05:35.161Z,4.40
2018-12-19T04:08:02.570Z,4.32
2018-12-19T04:10:29.869Z,4.37
2018-12-19T04:12:57.119Z,4.50
2018-12-19T04:15:24.314Z,4.46
2018-12-19T04:17:51.544Z,4.46
2018-12-19T04:20:19.106Z,4.49
2018-12-19T04:22:46.361Z,4.54
2018-12-19T04:25:13.573Z,4.78
2018-12-19T04:27:40.813Z,4.81
2018-12-19T04:30:08.275Z,4.83
2018-12-19T04:32:35.977Z,4.77
2018-12-19T04:35:03.428Z,4.76
2018-12-19T04:37:30.752Z,4.81
2018-12-19T04:40:05.147Z,4.84
2018-12-19T04:42:27.284Z,4.67
2018-12-19T04:44:54.489Z,4.74
2018-12-19T04:47:21.699Z,4.78
2018-12-19T04:49:48.942Z,4.91
2018-12-19T04:52:16.259Z,4.91
2018-12-19T04:54:43.494Z,4.93
2018-12-19T04:57:10.726Z,4.94
2018-12-19T04:59:37.960Z,4.94
2018-12-19T05:02:05.189Z,4.99
2018-12-19T05:04:32.417Z,4.95
2018-12-19T05:06:59.692Z,4.92
2018-12-19T05:09:26.948Z,5.05
2018-12-19T05:11:54.187Z,5.10
2018-12-19T05:14:21.739Z,5.19
2018-12-19T05:16:48.951Z,5.20
2018-12-19T05:19:16.164Z,5.35
2018-12-19T05:21:43.376Z,5.17
2018-12-19T05:24:10.599Z,5.19
2018-12-19T05:26:37.803Z,5.22
2018-12-19T05:29:05.060Z,5.27
2018-12-19T05:31:32.273Z,5.33
2018-12-19T05:33:59.482Z,5.32
2018-12-19T05:36:26.683Z,5.39
2018-12-19T05:38:53.920Z,5.46
2018-12-19T05:41:21.153Z,5.52
2018-12-19T05:43:48.358Z,5.51
2018-12-19T05:46:15.600Z,5.53
2018-12-19T05:48:42.837Z,5.57
2018-12-19T05:51:10.066Z,5.51
2018-12-19T05:53:37.305Z,5.50
2018-12-19T05:56:04.537Z,5.48
2018-12-19T05:58:31.747Z,5.48
2018-12-19T06:00:58.992Z,5.28
2018-12-19T06:03:26.205Z,5.25
2018-12-19T06:05:53.463Z,5.29
2018-12-19T06:08:20.696Z,5.20
2018-12-19T06:10:47.927Z,5.19
2018-12-19T06:13:15.130Z,5.18
2018-12-19T06:15:42.369Z,5.11
2018-12-19T06:18:09.565Z,5.16
2018-12-19T06:20:36.801Z,5.20
2018-12-19T06:23:04.041Z,5.24
2018-12-19T06:25:31.259Z,5.10
2018-12-19T06:27:58.477Z,5.12
2018-12-19T06:30:26.137Z,5.03
2018-12-19T06:32:53.476Z,4.91
2018-12-19T06:35:20.764Z,5.05
2018-12-19T06:37:47.954Z,5.00
2018-12-19T06:40:15.196Z,4.96
2018-12-19T06:42:42.549Z,4.98
2018-12-19T06:45:09.783Z,4.98
2018-12-19T06:47:37.012Z,5.03
2018-12-19T06:50:05.639Z,4.89
2018-12-19T06:52:32.848Z,4.97
2018-12-19T06:55:00.051Z,4.92
2018-12-19T06:57:27.544Z,4.98
2018-12-19T06:59:54.728Z,4.87
2018-12-19T07:02:22.031Z,4.87
2018-12-19T07:04:49.238Z,4.88
2018-12-19T07:07:16.463Z,4.88
2018-12-19T07:09:43.767Z,4.94
2018-12-19T07:12:11.172Z,4.90
2018-12-19T07:14:40.706Z,5.00
2018-12-19T07:17:08.228Z,5.04
2018-12-19T07:19:35.445Z,4.99
2018-12-19T07:22:02.815Z,5.08
2018-12-19T07:24:30.089Z,5.02
2018-12-19T07:26:57.330Z,5.03
2018-12-19T07:29:26.159Z,4.96
2018-12-19T07:31:53.401Z,5.05
2018-12-19T07:34:20.632Z,5.09
2018-12-19T07:36:47.874Z,5.08
2018-12-19T07:39:21.947Z,4.98
2018-12-19T07:41:49.196Z,4.96
2018-12-19T07:44:16.880Z,5.03
2018-12-19T07:46:44.468Z,4.91
2018-12-19T07:49:11.708Z,4.99
2018-12-19T07:51:39.301Z,5.05
2018-12-19T07:54:06.525Z,5.03
2018-12-19T07:56:33.829Z,5.09
2018-12-19T07:59:01.085Z,5.26
2018-12-19T08:01:28.304Z,5.41
2018-12-19T08:03:55.528Z,5.55
2018-12-19T08:06:22.756Z,5.80
2018-12-19T08:08:50.008Z,5.75
2018-12-19T08:11:17.232Z,5.91
2018-12-19T08:13:44.465Z,6.12
2018-12-19T08:16:11.707Z,6.22
2018-12-19T08:18:38.993Z,6.14
2018-12-19T08:21:06.204Z,6.21
2018-12-19T08:23:33.435Z,6.23
2018-12-19T08:26:00.641Z,6.23
2018-12-19T08:28:27.910Z,6.40
2018-12-19T08:30:55.122Z,6.40
2018-12-19T08:33:22.420Z,6.37
2018-12-19T08:35:49.809Z,6.46
2018-12-19T08:38:18.158Z,6.42
2018-12-19T08:40:45.390Z,6.55
2018-12-19T08:43:12.635Z,6.56
2018-12-19T08:45:40.275Z,6.52
2018-12-19T08:48:07.479Z,6.55
2018-12-19T08:50:34.689Z,6.63
2018-12-19T08:53:01.915Z,6.68
2018-12-19T08:55:29.181Z,6.77
2018-12-19T08:57:56.448Z,6.63
2018-12-19T09:00:24.223Z,6.58
2018-12-19T09:02:51.665Z,6.74
2018-12-19T09:05:18.872Z,6.76
2018-12-19T09:07:46.267Z,6.85
2018-12-19T09:10:13.538Z,6.80
2018-12-19T09:12:40.744Z,6.91
2018-12-19T09:15:08.133Z,6.96
2018-12-19T09:17:35.887Z,6.90
2018-12-19T09:20:03.891Z,6.92
2018-12-19T09:22:31.183Z,6.82
2018-12-19T09:24:58.459Z,6.96
2018-12-19T09:27:25.708Z,7.07
2018-12-19T09:29:52.937Z,6.98
2018-12-19T09:32:20.172Z,7.13
2018-12-19T09:34:47.397Z,7.02
2018-12-19T09:37:14.634Z,7.17
2018-12-19T09:39:41.869Z,7.06
2018-12-19T09:42:09.094Z,7.13
2018-12-19T09:44:36.353Z,7.19
2018-12-19T09:47:03.580Z,7.20
2018-12-19T09:49:30.814Z,7.21
2018-12-19T09:51:58.075Z,7.23
2018-12-19T09:54:25.415Z,7.16
2018-12-19T09:56:53.470Z,7.20
2018-12-19T09:59:20.893Z,7.23
2018-12-19T10:01:48.141Z,7.34
2018-12-19T10:04:15.401Z,7.23
2018-12-19T10:06:42.604Z,7.00
2018-12-19T10:09:14.780Z,7.29
2018-12-19T10:11:39.271Z,7.34
2018-12-19T10:14:06.661Z,7.26
2018-12-19T10:16:33.880Z,7.31
2018-12-19T10:19:01.133Z,7.30
2018-12-19T10:21:28.723Z,7.37
2018-12-19T10:23:55.975Z,7.38
2018-12-19T10:26:23.308Z,7.43
2018-12-19T10:28:50.584Z,7.52
2018-12-19T10:31:18.006Z,7.58
2018-12-19T10:33:45.512Z,7.54
2018-12-19T10:36:12.751Z,7.50
2018-12-19T10:38:39.937Z,7.58
2018-12-19T10:41:07.426Z,7.64
2018-12-19T10:43:34.641Z,7.58
2018-12-19T10:46:01.877Z,7.62
2018-12-19T10:48:29.068Z,7.62
2018-12-19T10:50:56.523Z,7.71
2018-12-19T10:53:23.730Z,7.83
2018-12-19T10:55:50.998Z,7.69
2018-12-19T10:58:18.201Z,7.54
2018-12-19T11:00:51.161Z,7.60
2018-12-19T11:03:18.461Z,7.63
2018-12-19T11:05:45.711Z,7.72
2018-12-19T11:08:12.922Z,7.67
2018-12-19T11:10:41.157Z,7.59
2018-12-19T11:13:08.470Z,7.60
2018-12-19T11:15:35.738Z,7.67
2018-12-19T11:18:02.978Z,7.67
2018-12-19T11:20:30.216Z,7.75
2018-12-19T11:22:57.456Z,7.84
2018-12-19T11:25:24.668Z,7.82
2018-12-19T11:27:51.972Z,7.67
2018-12-19T11:30:19.278Z,7.97
2018-12-19T11:32:46.521Z,7.97
2018-12-19T11:35:13.792Z,8.10
2018-12-19T11:37:41.040Z,8.19
2018-12-19T11:40:08.754Z,8.31
2018-12-19T11:42:36.040Z,8.38
2018-12-19T11:45:04.070Z,8.63
2018-12-19T11:47:31.332Z,8.99
2018-12-19T11:49:58.561Z,9.12
2018-12-19T11:52:25.829Z,9.33
2018-12-19T11:54:53.060Z,9.17
2018-12-19T11:57:20.325Z,9.40
2018-12-19T11:59:47.550Z,9.56
2018-12-19T12:02:14.796Z,9.62
2018-12-19T12:04:42.006Z,9.63
2018-12-19T12:07:09.673Z,9.40
2018-12-19T12:09:36.996Z,9.32
2018-12-19T12:12:04.234Z,9.23
2018-12-19T12:14:31.455Z,9.32
2018-12-19T12:16:58.760Z,9.55
2018-12-19T12:19:26.136Z,9.54
2018-12-19T12:21:53.370Z,9.73
2018-12-19T12:24:20.603Z,9.88
2018-12-19T12:26:47.826Z,9.93
2018-12-19T12:29:15.075Z,10.13
2018-12-19T12:31:42.322Z,10.08
2018-12-19T12:34:09.610Z,10.11
2018-12-19T12:36:36.885Z,10.36
2018-12-19T12:39:06.817Z,10.18
2018-12-19T12:41:34.033Z,10.12
2018-12-19T12:44:01.285Z,10.23
2018-12-19T12:46:28.510Z,10.18
2018-12-19T12:48:55.905Z,10.23
2018-12-19T12:51:23.140Z,10.29
2018-12-19T12:53:50.403Z,10.14
2018-12-19T12:56:17.640Z,10.02
2018-12-19T12:58:44.901Z,10.01
2018-12-19T13:01:12.213Z,9.99
2018-12-19T13:03:39.565Z,9.97
2018-12-19T13:06:07.014Z,9.85
2018-12-19T13:08:34.298Z,9.74
2018-12-19T13:11:01.605Z,9.85
2018-12-19T13:13:28.961Z,9.65
2018-12-19T13:15:56.244Z,9.60
2018-12-19T13:18:23.512Z,9.57
2018-12-19T13:20:50.734Z,9.58
2018-12-19T13:23:18.154Z,9.45
2018-12-19T13:25:45.401Z,9.46
2018-12-19T13:28:16.186Z,9.53
2018-12-19T13:30:43.546Z,9.38
2018-12-19T13:33:10.970Z,9.38
2018-12-19T13:35:38.280Z,9.43
2018-12-19T13:38:05.630Z,9.35
2018-12-19T13:40:32.984Z,9.34
2018-12-19T13:43:00.195Z,9.43
2018-12-19T13:45:27.527Z,9.51
2018-12-19T13:47:54.783Z,9.36
2018-12-19T13:50:22.105Z,9.30
2018-12-19T13:52:49.374Z,9.31
2018-12-19T13:55:16.621Z,9.54
2018-12-19T13:57:43.828Z,9.45
2018-12-19T14:00:11.364Z,9.48
2018-12-19T14:02:38.666Z,9.36
2018-12-19T14:05:06.099Z,9.43
2018-12-19T14:07:33.337Z,9.28
2018-12-19T14:10:00.724Z,9.26
2018-12-19T14:12:28.000Z,9.32
2018-12-19T14:14:55.240Z,9.17
2018-12-19T14:17:22.625Z,9.18
2018-12-19T14:19:49.888Z,9.11
2018-12-19T14:22:17.280Z,9.15
2018-12-19T14:24:44.539Z,9.24
2018-12-19T14:27:11.840Z,9.18
2018-12-19T14:29:39.116Z,9.26
2018-12-19T14:32:06.339Z,9.16
2018-12-19T14:34:33.727Z,9.13
2018-12-19T14:37:00.945Z,9.03
2018-12-19T14:39:28.253Z,8.95
2018-12-19T14:41:55.633Z,9.02
2018-12-19T14:44:22.919Z,8.83
2018-12-19T14:46:50.194Z,8.83
2018-12-19T14:49:17.856Z,8.92
2018-12-19T14:51:45.110Z,8.88
2018-12-19T14:54:12.461Z,8.86
2018-12-19T14:56:39.779Z,8.82
2018-12-19T14:59:07.032Z,8.78
2018-12-19T15:01:34.316Z,8.75
2018-12-19T15:04:01.656Z,8.67
2018-12-19T15:06:28.978Z,8.73
2018-12-19T15:08:56.369Z,8.67
2018-12-19T15:11:23.636Z,8.62
2018-12-19T15:13:51.021Z,8.49
2018-12-19T15:16:22.535Z,8.41
2018-12-19T15:18:51.800Z,8.49
2018-12-19T15:21:20.440Z,8.51
2018-12-19T15:23:48.228Z,8.39
2018-12-19T15:26:16.057Z,8.34
2018-12-19T15:28:43.859Z,8.27
2018-12-19T15:31:11.220Z,8.26
2018-12-19T15:33:38.496Z,8.22
2018-12-19T15:36:07.144Z,8.20
2018-12-19T15:38:35.121Z,8.13
2018-12-19T15:41:02.646Z,8.16
2018-12-19T15:43:30.433Z,8.02
2018-12-19T15:45:57.752Z,8.01
2018-12-19T15:48:25.429Z,8.00
2018-12-19T15:50:52.774Z,8.02
2018-12-19T15:53:20.050Z,7.92
2018-12-19T15:55:47.416Z,7.89
2018-12-19T15:58:14.743Z,7.79
2018-12-19T16:00:43.726Z,7.61
2018-12-19T16:03:12.397Z,7.54
2018-12-19T16:05:41.458Z,7.54
2018-12-19T16:08:10.235Z,7.47
2018-12-19T16:10:39.063Z,7.52
2018-12-19T16:13:07.850Z,7.51
2018-12-19T16:15:36.238Z,7.43
2018-12-19T16:18:05.189Z,7.28
2018-12-19T16:20:34.469Z,7.28
2018-12-19T16:23:03.260Z,7.22
2018-12-19T16:25:31.858Z,7.16
2018-12-19T16:28:00.537Z,7.01
2018-12-19T16:30:28.158Z,6.96
2018-12-19T16:32:57.322Z,6.91
2018-12-19T16:35:26.370Z,6.89
2018-12-19T16:37:55.283Z,6.81
2018-12-19T16:40:23.904Z,6.80
2018-12-19T16:42:53.227Z,6.85
2018-12-19T16:45:20.530Z,6.85
2018-12-19T16:47:47.775Z,6.79
2018-12-19T16:50:14.981Z,6.63
2018-12-19T16:52:42.253Z,6.63
2018-12-19T16:55:09.713Z,6.66
2018-12-19T16:57:36.938Z,6.58
2018-12-19T17:00:05.224Z,6.54
2018-12-19T17:02:32.672Z,6.57
2018-12-19T17:04:59.943Z,6.60
2018-12-19T17:07:27.177Z,6.72
2018-12-19T17:09:54.388Z,6.77
2018-12-19T17:12:21.645Z,6.73
2018-12-19T17:14:48.876Z,6.69
2018-12-19T17:17:16.204Z,6.60
2018-12-19T17:19:43.415Z,6.53
2018-12-19T17:22:10.804Z,6.55
2018-12-19T17:24:40.250Z,6.53
2018-12-19T17:27:07.629Z,6.47
2018-12-19T17:29:35.077Z,6.44
2018-12-19T17:32:02.473Z,6.38
2018-12-19T17:34:29.765Z,6.28
2018-12-19T17:36:56.987Z,6.32
2018-12-19T17:39:24.210Z,6.25
2018-12-19T17:41:51.496Z,6.21
2018-12-19T17:44:18.770Z,6.12
2018-12-19T17:46:46.026Z,5.96
2018-12-19T17:49:13.404Z,5.94
2018-12-19T17:51:40.662Z,5.90
2018-12-19T17:54:07.968Z,5.90
2018-12-19T17:56:35.317Z,5.95
2018-12-19T17:59:02.923Z,5.95
2018-12-19T18:01:30.273Z,5.99
2018-12-19T18:03:57.516Z,6.04
2018-12-19T18:06:24.729Z,6.16
2018-12-19T18:08:52.041Z,6.11
2018-12-19T18:11:19.253Z,6.22
2018-12-19T18:13:46.629Z,6.18
2018-12-19T18:16:14.159Z,6.18
2018-12-19T18:18:41.391Z,6.34
2018-12-19T18:21:08.616Z,6.31
2018-12-19T18:23:35.889Z,6.31
2018-12-19T18:26:03.397Z,6.32
2018-12-19T18:28:30.624Z,6.24
2018-12-19T18:30:57.844Z,6.15
2018-12-19T18:33:25.097Z,6.12
2018-12-19T18:35:52.350Z,6.07
2018-12-19T18:38:19.654Z,6.03
2018-12-19T18:40:46.951Z,5.96
2018-12-19T18:43:14.188Z,5.95
2018-12-19T18:45:41.545Z,5.96
2018-12-19T18:48:08.833Z,6.05
2018-12-19T18:50:36.201Z,6.00
2018-12-19T18:53:03.504Z,5.96
2018-12-19T18:55:30.715Z,5.90
2018-12-19T18:57:57.915Z,5.70
2018-12-19T19:00:31.293Z,5.90
2018-12-19T19:02:58.633Z,5.95
2018-12-19T19:05:26.133Z,5.91
2018-12-19T19:07:53.410Z,5.98
2018-12-19T19:10:20.660Z,5.91
2018-12-19T19:12:48.151Z,5.86
2018-12-19T19:15:15.407Z,6.01
2018-12-19T19:17:42.753Z,5.90
2018-12-19T19:20:10.068Z,6.19
2018-12-19T19:22:37.317Z,6.09
2018-12-19T19:25:04.824Z,5.94
2018-12-19T19:27:32.043Z,5.93
2018-12-19T19:29:59.361Z,5.82
2018-12-19T19:32:26.605Z,5.87
2018-12-19T19:34:53.858Z,5.81
2018-12-19T19:37:21.102Z,5.79
2018-12-19T19:39:48.363Z,5.75
2018-12-19T19:42:15.626Z,5.94
2018-12-19T19:44:42.873Z,5.86
2018-12-19T19:47:10.113Z,5.87
2018-12-19T19:49:37.429Z,5.86
2018-12-19T19:52:04.675Z,5.83
2018-12-19T19:54:31.909Z,5.88
2018-12-19T19:56:59.133Z,5.81
2018-12-19T19:59:26.388Z,5.78
2018-12-19T20:01:53.693Z,5.68
2018-12-19T20:04:21.144Z,5.74
2018-12-19T20:06:48.391Z,5.77
2018-12-19T20:09:15.680Z,5.78
2018-12-19T20:11:42.937Z,5.80
2018-12-19T20:14:10.213Z,5.76
2018-12-19T20:16:43.174Z,5.68
2018-12-19T20:19:10.405Z,5.72
2018-12-19T20:21:37.663Z,5.64
2018-12-19T20:24:05.025Z,5.66
2018-12-19T20:26:32.276Z,5.66
2018-12-19T20:28:59.493Z,5.61
2018-12-19T20:31:26.773Z,5.62
2018-12-19T20:33:54.012Z,5.68
2018-12-19T20:36:21.254Z,5.65
2018-12-19T20:38:48.579Z,5.73
2018-12-19T20:41:22.602Z,5.77
2018-12-19T20:43:49.904Z,5.79
2018-12-19T20:46:17.193Z,5.70
2018-12-19T20:48:44.432Z,5.65
2018-12-19T20:51:11.880Z,5.66
2018-12-19T20:53:39.144Z,5.59
2018-12-19T20:56:06.496Z,5.60
2018-12-19T20:58:33.818Z,5.55
2018-12-19T21:01:01.196Z,5.75
2018-12-19T21:03:28.425Z,5.91
2018-12-19T21:05:55.796Z,5.73
2018-12-19T21:08:23.075Z,5.66
2018-12-19T21:10:50.401Z,5.71
2018-12-19T21:13:17.687Z,5.59
2018-12-19T21:15:45.012Z,5.61
2018-12-19T21:18:18.084Z,5.80
2018-12-19T21:20:45.349Z,5.84
2018-12-19T21:23:12.620Z,5.78
2018-12-19T21:25:39.829Z,5.74
2018-12-19T21:28:07.075Z,5.71
2018-12-19T21:30:34.407Z,5.58
2018-12-19T21:33:01.651Z,5.63
2018-12-19T21:35:28.860Z,5.53
2018-12-19T21:37:56.151Z,5.59
2018-12-19T21:40:23.612Z,5.55
2018-12-19T21:42:51.021Z,5.57
2018-12-19T21:45:18.265Z,5.33
2018-12-19T21:47:45.582Z,5.62
2018-12-19T21:50:13.067Z,5.59
2018-12-19T21:52:40.572Z,5.50
2018-12-19T21:55:07.872Z,5.43
2018-12-19T21:57:35.125Z,5.40
2018-12-19T22:00:02.844Z,5.41
2018-12-19T22:02:30.235Z,5.49
2018-12-19T22:04:57.860Z,5.47
2018-12-19T22:07:25.311Z,5.47
2018-12-19T22:09:52.919Z,5.45
2018-12-19T22:12:20.256Z,5.51
2018-12-19T22:14:47.582Z,5.48
2018-12-19T22:17:20.627Z,5.44
2018-12-19T22:19:47.975Z,5.49
2018-12-19T22:22:15.237Z,5.46
2018-12-19T22:24:42.453Z,5.42
2018-12-19T22:27:09.815Z,5.55
2018-12-19T22:29:37.135Z,5.44
2018-12-19T22:32:04.567Z,5.47
2018-12-19T22:34:31.890Z,5.38
2018-12-19T22:36:59.460Z,5.30
2018-12-19T22:39:26.693Z,5.40
2018-12-19T22:41:54.041Z,5.43
2018-12-19T22:44:21.344Z,5.31
2018-12-19T22:46:48.636Z,5.26
2018-12-19T22:49:15.949Z,5.36
2018-12-19T22:51:43.692Z,5.30
2018-12-19T22:54:11.148Z,5.34
2018-12-19T22:56:38.622Z,5.40
2018-12-19T22:59:06.253Z,5.43
2018-12-19T23:01:39.918Z,5.36
2018-12-19T23:04:07.449Z,5.33
2018-12-19T23:06:35.615Z,5.34
2018-12-19T23:09:06.048Z,5.30
2018-12-19T23:11:33.404Z,5.34
2018-12-19T23:14:00.693Z,5.37
2018-12-19T23:16:28.026Z,5.37
2018-12-19T23:18:55.680Z,5.35
2018-12-19T23:21:23.420Z,5.37
2018-12-19T23:23:50.704Z,5.33
2018-12-19T23:26:25.927Z,5.45
2018-12-19T23:28:57.993Z,5.38
2018-12-19T23:31:25.305Z,5.33
2018-12-19T23:33:52.561Z,5.29
2018-12-19T23:36:19.894Z,5.30
2018-12-19T23:38:47.294Z,5.30
2018-12-19T23:41:14.560Z,5.35
2018-12-19T23:43:41.865Z,5.41
2018-12-19T23:46:09.140Z,5.45
2018-12-19T23:48:36.434Z,5.49
2018-12-19T23:51:03.910Z,5.53
2018-12-19T23:53:31.298Z,5.49
2018-12-19T23:55:58.605Z,5.43
2018-12-19T23:58:25.845Z,5.48
